Time;durP1;ratioP1;P1;durP2;ratioP2;P2;SDS_P1;SDS_P2;PMS_P1;PMS_P2;Temp;Humidity;BMP_temperature;BMP_pressure;BME280_temperature;BME280_humidity;BME280_pressure;Samples;Min_cycle;Max_cycle;Signal;HPM_P1;HPM_P2
2021/05/18 00:01:51;;;;;;;13.10;11.90;;;;;;;;;;5053857;28;20704;-80
2021/05/18 00:04:17;;;;;;;12.93;11.73;;;;;;;;;;5054358;28;20600;-80
2021/05/18 00:06:43;;;;;;;13.13;12.00;;;;;;;;;;5054605;28;20199;-80
2021/05/18 00:11:51;;;;;;;13.47;12.20;;;;;;;;;;5053842;28;20555;-82
2021/05/18 00:14:24;;;;;;;13.27;12.13;;;;;;;;;;5053563;28;20163;-82
2021/05/18 00:16:49;;;;;;;13.57;12.27;;;;;;;;;;5053581;28;20536;-82
2021/05/18 00:19:15;;;;;;;14.20;12.70;;;;;;;;;;5054099;28;20164;-80
2021/05/18 00:21:41;;;;;;;12.87;11.67;;;;;;;;;;5054000;28;20202;-80
2021/05/18 00:24:06;;;;;;;14.37;13.03;;;;;;;;;;5052347;28;20183;-80
2021/05/18 00:26:32;;;;;;;14.30;13.00;;;;;;;;;;5053714;28;20182;-80
2021/05/18 00:28:57;;;;;;;13.73;12.43;;;;;;;;;;5053237;28;20195;-80
2021/05/18 00:31:22;;;;;;;13.40;12.20;;;;;;;;;;5054018;28;20282;-80
2021/05/18 00:33:48;;;;;;;14.07;12.80;;;;;;;;;;5069033;28;20176;-80
2021/05/18 00:36:13;;;;;;;13.80;12.43;;;;;;;;;;5054228;28;20172;-80
2021/05/18 00:38:40;;;;;;;13.27;12.07;;;;;;;;;;5053601;28;20639;-80
2021/05/18 00:41:05;;;;;;;12.50;11.30;;;;;;;;;;5053792;28;20615;-80
2021/05/18 00:43:30;;;;;;;13.70;12.43;;;;;;;;;;5053775;28;20242;-80
2021/05/18 00:45:57;;;;;;;12.37;11.27;;;;;;;;;;5069012;28;20245;-80
2021/05/18 00:48:23;;;;;;;12.90;11.80;;;;;;;;;;5054174;28;20179;-81
2021/05/18 00:50:52;;;;;;;11.93;10.93;;;;;;;;;;5052185;28;20176;-82
2021/05/18 00:53:17;;;;;;;12.20;11.13;;;;;;;;;;5053719;28;20259;-82
2021/05/18 00:55:49;;;;;;;12.33;11.13;;;;;;;;;;5053231;28;20203;-82
2021/05/18 00:58:27;;;;;;;12.23;11.10;;;;;;;;;;5054378;28;20160;-82
2021/05/18 01:01:02;;;;;;;11.50;10.50;;;;;;;;;;5053924;28;20191;-82
2021/05/18 01:03:28;;;;;;;12.67;10.53;;;;;;;;;;5053254;28;20201;-82
2021/05/18 01:08:37;;;;;;;12.03;10.93;;;;;;;;;;5053368;28;20163;-82
2021/05/18 01:11:03;;;;;;;12.13;10.83;;;;;;;;;;5053150;28;20207;-82
2021/05/18 01:13:31;;;;;;;13.00;11.70;;;;;;;;;;5053543;28;20626;-82
2021/05/18 01:15:56;;;;;;;12.93;11.60;;;;;;;;;;5053575;28;20199;-82
2021/05/18 01:18:22;;;;;;;13.57;12.30;;;;;;;;;;5053268;28;20616;-82
2021/05/18 01:20:57;;;;;;;14.27;12.87;;;;;;;;;;5053219;28;20210;-82
2021/05/18 01:23:23;;;;;;;13.93;12.53;;;;;;;;;;5051847;28;20191;-82
2021/05/18 01:25:48;;;;;;;14.93;12.83;;;;;;;;;;5053230;28;20187;-82
2021/05/18 01:28:14;;;;;;;14.33;12.93;;;;;;;;;;5053424;28;20624;-82
2021/05/18 01:30:39;;;;;;;14.87;13.37;;;;;;;;;;5052988;28;20219;-82
2021/05/18 01:33:04;;;;;;;15.60;14.10;;;;;;;;;;5053693;28;20597;-82
2021/05/18 01:35:30;;;;;;;15.50;14.00;;;;;;;;;;5052819;28;20168;-82
2021/05/18 01:37:55;;;;;;;15.67;14.17;;;;;;;;;;5053470;28;20553;-82
2021/05/18 01:42:51;;;;;;;16.30;14.60;;;;;;;;;;5056785;28;20275;-82
2021/05/18 01:45:19;;;;;;;17.43;15.07;;;;;;;;;;5057289;28;20184;-82
2021/05/18 01:47:55;;;;;;;16.57;14.93;;;;;;;;;;5055126;28;20182;-82
2021/05/18 01:50:22;;;;;;;17.30;15.50;;;;;;;;;;5057132;28;20159;-83
2021/05/18 01:52:48;;;;;;;16.67;14.97;;;;;;;;;;5056180;28;20279;-83
2021/05/18 01:55:26;;;;;;;16.93;15.17;;;;;;;;;;5056241;28;20203;-82
2021/05/18 01:57:52;;;;;;;17.10;15.33;;;;;;;;;;5056706;28;20156;-82
2021/05/18 02:00:19;;;;;;;17.37;15.63;;;;;;;;;;5056289;28;20275;-82
2021/05/18 02:02:44;;;;;;;17.60;15.90;;;;;;;;;;5056841;28;20182;-82
2021/05/18 02:05:12;;;;;;;18.60;16.80;;;;;;;;;;5056849;28;20168;-82
2021/05/18 02:07:39;;;;;;;17.60;15.90;;;;;;;;;;5072491;28;20500;-82
2021/05/18 02:10:11;;;;;;;17.70;16.00;;;;;;;;;;5056046;28;20174;-82
2021/05/18 02:12:37;;;;;;;17.17;15.53;;;;;;;;;;5056456;28;20257;-82
2021/05/18 02:15:19;;;;;;;18.00;16.30;;;;;;;;;;5070765;28;20164;-82
2021/05/18 02:17:50;;;;;;;19.70;16.23;;;;;;;;;;5080774;28;20168;-82
2021/05/18 02:20:37;;;;;;;18.10;16.40;;;;;;;;;;5076280;28;20258;-83
2021/05/18 02:25:46;;;;;;;17.67;16.03;;;;;;;;;;5063413;28;20163;-82
2021/05/18 02:28:12;;;;;;;18.47;16.77;;;;;;;;;;5056199;28;20164;-83
2021/05/18 02:30:38;;;;;;;19.07;17.10;;;;;;;;;;5056221;28;20247;-83
2021/05/18 02:33:04;;;;;;;19.13;17.00;;;;;;;;;;5055825;28;20608;-83
2021/05/18 02:35:30;;;;;;;18.53;16.83;;;;;;;;;;5055803;28;20179;-83
2021/05/18 02:37:55;;;;;;;19.37;17.40;;;;;;;;;;5056016;28;20579;-82
2021/05/18 02:40:23;;;;;;;18.83;16.93;;;;;;;;;;5055744;28;20176;-83
2021/05/18 02:42:49;;;;;;;18.40;16.63;;;;;;;;;;5055868;28;20214;-82
2021/05/18 02:45:28;;;;;;;17.83;16.13;;;;;;;;;;5055614;28;20199;-82
2021/05/18 02:50:38;;;;;;;16.93;15.23;;;;;;;;;;5054951;28;20207;-82
2021/05/18 02:53:04;;;;;;;17.50;15.70;;;;;;;;;;5055160;28;20632;-82
2021/05/18 02:55:38;;;;;;;18.97;15.87;;;;;;;;;;5054983;28;20171;-83
2021/05/18 02:58:07;;;;;;;18.00;15.30;;;;;;;;;;5055307;28;20157;-83
2021/05/18 03:00:32;;;;;;;21.67;15.63;;;;;;;;;;5055209;28;20254;-83
2021/05/18 03:02:57;;;;;;;16.43;14.93;;;;;;;;;;5055150;28;20255;-83
2021/05/18 03:05:25;;;;;;;17.47;15.60;;;;;;;;;;5055728;28;20275;-83
2021/05/18 03:07:51;;;;;;;16.73;15.10;;;;;;;;;;5055258;28;20168;-83
2021/05/18 03:10:17;;;;;;;17.17;15.47;;;;;;;;;;5055828;28;20255;-83
2021/05/18 03:12:42;;;;;;;17.80;16.03;;;;;;;;;;5055202;28;20295;-82
2021/05/18 03:15:08;;;;;;;17.30;15.60;;;;;;;;;;5054870;28;20235;-83
2021/05/18 03:17:33;;;;;;;16.77;14.97;;;;;;;;;;5055054;28;20172;-83
2021/05/18 03:19:59;;;;;;;17.53;15.73;;;;;;;;;;5054811;28;20167;-83
2021/05/18 03:22:24;;;;;;;16.63;15.03;;;;;;;;;;5054678;28;20224;-83
2021/05/18 03:24:50;;;;;;;17.03;15.43;;;;;;;;;;5055361;28;20164;-83
2021/05/18 03:27:15;;;;;;;17.43;15.57;;;;;;;;;;5055606;28;20199;-83
2021/05/18 03:29:43;;;;;;;16.53;14.93;;;;;;;;;;5054674;28;20171;-83
2021/05/18 03:34:52;;;;;;;15.57;14.07;;;;;;;;;;5055108;28;20650;-83
2021/05/18 03:37:22;;;;;;;16.43;14.83;;;;;;;;;;5054912;28;20176;-83
2021/05/18 03:39:49;;;;;;;15.03;13.63;;;;;;;;;;5054338;28;20600;-83
2021/05/18 03:42:22;;;;;;;14.87;13.20;;;;;;;;;;5054802;28;20203;-83
2021/05/18 03:52:50;;;;;;;12.63;11.43;;;;;;;;;;5053895;28;20675;-83
2021/05/18 04:16:55;;;;;;;13.10;11.83;;;;;;;;;;5053757;28;20213;-83
2021/05/18 04:19:29;;;;;;;12.97;11.67;;;;;;;;;;5054532;28;20615;-83
2021/05/18 05:01:40;;;;;;;12.00;10.80;;;;;;;;;;5053618;28;20616;-81
2021/05/18 05:09:44;;;;;;;12.37;11.27;;;;;;;;;;5062743;28;20180;-83
2021/05/18 05:14:47;;;;;;;12.53;11.43;;;;;;;;;;5055113;28;20164;-83
2021/05/18 05:17:12;;;;;;;12.83;11.63;;;;;;;;;;5073034;28;20524;-83
2021/05/18 05:19:38;;;;;;;12.77;11.67;;;;;;;;;;5056964;28;20214;-83
2021/05/18 05:22:04;;;;;;;13.07;11.90;;;;;;;;;;5057136;28;20238;-83
2021/05/18 05:24:30;;;;;;;13.17;11.83;;;;;;;;;;5057160;28;20505;-83
2021/05/18 05:26:56;;;;;;;13.23;12.00;;;;;;;;;;5057031;28;20179;-83
2021/05/18 05:29:21;;;;;;;13.20;11.90;;;;;;;;;;5056704;28;20683;-84
2021/05/18 05:31:48;;;;;;;13.30;12.10;;;;;;;;;;5057529;28;20236;-84
2021/05/18 05:34:13;;;;;;;13.07;11.97;;;;;;;;;;5056827;28;20176;-84
2021/05/18 05:36:39;;;;;;;12.83;11.73;;;;;;;;;;5072392;28;20602;-84
2021/05/18 05:39:14;;;;;;;13.30;12.10;;;;;;;;;;5056826;28;20164;-84
2021/05/18 05:41:39;;;;;;;12.60;11.43;;;;;;;;;;5057434;28;20226;-83
2021/05/18 05:44:05;;;;;;;13.10;11.87;;;;;;;;;;5056765;28;20175;-81
2021/05/18 05:46:31;;;;;;;12.33;11.33;;;;;;;;;;5055503;28;20263;-81
2021/05/18 05:48:56;;;;;;;12.00;10.93;;;;;;;;;;5056443;28;20675;-82
2021/05/18 05:51:26;;;;;;;12.70;11.40;;;;;;;;;;5056675;28;20204;-82
2021/05/18 05:53:52;;;;;;;12.47;11.47;;;;;;;;;;5072172;28;20192;-82
2021/05/18 05:56:18;;;;;;;12.83;11.73;;;;;;;;;;5056525;28;20167;-82
2021/05/18 05:58:44;;;;;;;12.63;11.40;;;;;;;;;;5056476;28;20167;-82
2021/05/18 06:01:09;;;;;;;12.13;11.13;;;;;;;;;;5056797;28;20172;-82
2021/05/18 06:03:34;;;;;;;12.57;11.50;;;;;;;;;;5056125;28;20164;-82
2021/05/18 06:06:00;;;;;;;12.60;11.50;;;;;;;;;;5056593;28;20216;-82
2021/05/18 06:08:25;;;;;;;11.90;10.80;;;;;;;;;;5056626;28;20180;-82
2021/05/18 06:10:56;;;;;;;12.20;11.20;;;;;;;;;;5056015;28;20164;-82
2021/05/18 06:43:06;;;;;;;12.07;11.07;;;;;;;;;;5035517;28;20538;-82
2021/05/18 06:48:16;;;;;;;12.83;11.73;;;;;;;;;;5035197;28;20187;-83
2021/05/18 06:50:41;;;;;;;13.33;12.13;;;;;;;;;;5040370;28;20184;-83
2021/05/18 06:53:06;;;;;;;13.17;11.97;;;;;;;;;;5040858;28;20769;-83
2021/05/18 06:55:34;;;;;;;13.47;12.27;;;;;;;;;;5046056;28;20180;-83
2021/05/18 07:00:28;;;;;;;13.80;12.60;;;;;;;;;;5053525;28;20175;-83
2021/05/18 07:02:56;;;;;;;13.87;12.70;;;;;;;;;;5041273;28;20551;-83
2021/05/18 07:05:39;;;;;;;13.57;12.30;;;;;;;;;;5054805;28;20172;-82
2021/05/18 07:10:33;;;;;;;14.73;13.40;;;;;;;;;;5054391;28;20262;-82
2021/05/18 07:12:58;;;;;;;13.10;11.90;;;;;;;;;;5054323;28;20298;-82
2021/05/18 07:15:26;;;;;;;14.40;13.20;;;;;;;;;;5050271;28;20911;-82
2021/05/18 07:17:52;;;;;;;14.37;13.17;;;;;;;;;;5041827;28;20168;-84
2021/05/18 07:20:18;;;;;;;14.23;13.03;;;;;;;;;;5055217;28;20191;-83
2021/05/18 07:22:43;;;;;;;14.50;13.10;;;;;;;;;;5054634;28;20234;-83
2021/05/18 07:25:09;;;;;;;14.47;13.07;;;;;;;;;;5054737;28;20548;-83
2021/05/18 07:27:34;;;;;;;14.10;12.90;;;;;;;;;;5055304;28;20192;-83
2021/05/18 07:30:00;;;;;;;15.97;13.07;;;;;;;;;;5054360;28;20234;-83
2021/05/18 07:32:25;;;;;;;13.70;12.50;;;;;;;;;;5054677;28;20191;-83
2021/05/18 07:34:51;;;;;;;15.07;13.77;;;;;;;;;;5054590;28;20168;-83
2021/05/18 07:37:16;;;;;;;14.20;12.90;;;;;;;;;;5054593;28;20172;-83
2021/05/18 07:39:42;;;;;;;13.10;11.87;;;;;;;;;;5051198;28;20175;-83
2021/05/18 07:42:08;;;;;;;13.07;11.87;;;;;;;;;;5047071;28;20663;-83
2021/05/18 07:44:34;;;;;;;13.27;12.07;;;;;;;;;;5051325;28;20175;-82
2021/05/18 07:46:59;;;;;;;26.87;13.60;;;;;;;;;;5054106;28;20179;-84
2021/05/18 07:49:36;;;;;;;18.60;12.80;;;;;;;;;;5053697;28;20202;-83
2021/05/18 08:05:24;;;;;;;17.40;12.30;;;;;;;;;;5054996;28;20164;-83
2021/05/18 08:07:49;;;;;;;13.30;12.03;;;;;;;;;;5053760;28;20183;-83
2021/05/18 08:10:25;;;;;;;13.30;12.00;;;;;;;;;;5053464;28;20172;-83
2021/05/18 08:12:50;;;;;;;13.33;12.03;;;;;;;;;;5052536;28;20191;-82
2021/05/18 08:17:59;;;;;;;12.60;11.60;;;;;;;;;;5053802;28;20180;-82
2021/05/18 10:36:27;;;;;;;15.13;13.43;;;;;;;;;;5055510;28;20642;-85
2021/05/18 10:39:12;;;;;;;15.50;13.83;;;;;;;;;;5052810;28;20206;-85
2021/05/18 10:41:38;;;;;;;14.90;13.50;;;;;;;;;;5051596;28;20195;-84
2021/05/18 10:44:05;;;;;;;14.43;13.13;;;;;;;;;;5050596;28;20171;-83
2021/05/18 10:46:45;;;;;;;13.97;12.70;;;;;;;;;;5044663;28;20619;-83
2021/05/18 10:49:12;;;;;;;14.63;13.33;;;;;;;;;;5047319;28;20210;-85
2021/05/18 10:51:45;;;;;;;14.73;13.37;;;;;;;;;;5053798;28;20664;-84
2021/05/18 10:54:20;;;;;;;14.20;12.97;;;;;;;;;;5051227;28;20293;-85
2021/05/18 10:56:55;;;;;;;14.07;12.77;;;;;;;;;;5053434;28;20175;-85
2021/05/18 10:59:39;;;;;;;13.97;12.70;;;;;;;;;;5051554;28;20190;-84
2021/05/18 11:02:19;;;;;;;12.97;11.77;;;;;;;;;;5052156;28;20278;-85
2021/05/18 11:04:49;;;;;;;12.70;11.40;;;;;;;;;;5055921;28;20176;-85
2021/05/18 11:07:16;;;;;;;12.60;11.30;;;;;;;;;;5052192;28;20179;-85
2021/05/18 11:09:42;;;;;;;13.10;11.80;;;;;;;;;;5053520;28;20192;-84
2021/05/18 11:12:20;;;;;;;13.00;11.70;;;;;;;;;;5051768;28;20215;-85
2021/05/18 11:14:45;;;;;;;13.13;11.87;;;;;;;;;;5054803;28;20159;-85
2021/05/18 11:17:19;;;;;;;14.50;13.00;;;;;;;;;;5053858;28;20179;-86
2021/05/18 11:19:45;;;;;;;12.80;11.47;;;;;;;;;;5055195;28;20172;-85
2021/05/18 11:22:11;;;;;;;12.27;11.17;;;;;;;;;;5052822;28;20215;-85
2021/05/18 11:24:45;;;;;;;14.77;12.23;;;;;;;;;;5052497;28;20269;-85
2021/05/18 11:27:11;;;;;;;12.90;11.70;;;;;;;;;;5049022;28;20179;-84
2021/05/18 11:29:39;;;;;;;13.67;12.27;;;;;;;;;;5048653;28;20175;-84
2021/05/18 11:32:09;;;;;;;12.50;11.30;;;;;;;;;;5041201;28;20203;-84
2021/05/18 11:34:34;;;;;;;12.93;11.50;;;;;;;;;;5036486;28;20633;-84
2021/05/18 11:37:00;;;;;;;16.27;12.13;;;;;;;;;;5025223;28;20183;-85
2021/05/18 11:39:27;;;;;;;13.93;11.30;;;;;;;;;;5039965;28;20180;-84
2021/05/18 11:41:54;;;;;;;13.17;11.73;;;;;;;;;;5039636;28;20195;-84
2021/05/18 11:44:19;;;;;;;12.73;11.53;;;;;;;;;;5041302;28;20176;-84
2021/05/18 11:46:48;;;;;;;31.43;14.13;;;;;;;;;;5039850;28;20172;-85
2021/05/18 11:49:14;;;;;;;13.43;12.03;;;;;;;;;;5041062;28;20277;-85
2021/05/18 11:51:43;;;;;;;11.97;10.73;;;;;;;;;;5042722;28;20210;-85
2021/05/18 11:54:09;;;;;;;12.17;11.07;;;;;;;;;;5052128;28;20266;-86
2021/05/18 11:56:36;;;;;;;12.60;11.30;;;;;;;;;;5042991;28;20263;-84
2021/05/18 11:59:01;;;;;;;11.07;10.13;;;;;;;;;;5045497;28;20233;-85
2021/05/18 12:01:27;;;;;;;11.40;10.20;;;;;;;;;;5040362;28;20184;-85
2021/05/18 12:04:03;;;;;;;10.97;9.87;;;;;;;;;;5037429;28;20183;-84
2021/05/18 12:06:29;;;;;;;11.27;10.20;;;;;;;;;;5039326;28;20202;-86
2021/05/18 12:08:58;;;;;;;12.80;11.43;;;;;;;;;;5036593;28;20176;-86
2021/05/18 12:11:23;;;;;;;11.20;10.10;;;;;;;;;;5054471;28;20203;-85
2021/05/18 12:13:52;;;;;;;12.43;10.87;;;;;;;;;;5040365;28;20245;-85
2021/05/18 12:16:18;;;;;;;11.97;10.03;;;;;;;;;;5039411;28;20187;-83
2021/05/18 12:18:45;;;;;;;12.00;10.57;;;;;;;;;;5046526;28;20168;-85
2021/05/18 12:21:15;;;;;;;11.60;10.47;;;;;;;;;;5043861;28;20187;-84
2021/05/18 12:23:41;;;;;;;11.27;10.10;;;;;;;;;;5051364;28;20203;-85
2021/05/18 12:26:18;;;;;;;12.53;11.23;;;;;;;;;;5053808;28;20171;-85
2021/05/18 12:28:57;;;;;;;12.40;10.40;;;;;;;;;;5054304;28;20615;-84
2021/05/18 12:31:30;;;;;;;11.67;10.50;;;;;;;;;;5053212;28;20254;-85
2021/05/18 12:36:58;;;;;;;11.63;10.47;;;;;;;;;;5038148;28;20293;-85
2021/05/18 12:39:31;;;;;;;13.83;10.80;;;;;;;;;;5050430;28;20623;-85
2021/05/18 12:42:01;;;;;;;10.67;9.67;;;;;;;;;;5051538;28;20222;-85
2021/05/18 12:44:29;;;;;;;11.10;10.00;;;;;;;;;;5053616;28;20176;-84
2021/05/18 12:46:55;;;;;;;10.80;9.70;;;;;;;;;;5053362;28;20172;-84
2021/05/18 12:49:31;;;;;;;11.87;10.33;;;;;;;;;;5053456;28;20175;-84
2021/05/18 12:52:05;;;;;;;13.77;10.27;;;;;;;;;;5051347;28;20747;-84
2021/05/18 12:54:41;;;;;;;11.40;10.30;;;;;;;;;;5051671;28;20187;-84
2021/05/18 12:57:06;;;;;;;11.23;10.07;;;;;;;;;;5053769;28;20265;-84
2021/05/18 12:59:32;;;;;;;13.07;10.07;;;;;;;;;;5053192;28;20200;-84
2021/05/18 13:01:58;;;;;;;13.33;11.97;;;;;;;;;;5051577;28;20184;-84
2021/05/18 13:04:23;;;;;;;12.43;11.17;;;;;;;;;;5050475;28;20180;-84
2021/05/18 13:06:49;;;;;;;11.80;10.40;;;;;;;;;;5043080;28;20636;-85
2021/05/18 13:09:16;;;;;;;11.73;10.53;;;;;;;;;;5050916;28;20640;-85
2021/05/18 13:14:25;;;;;;;11.77;10.47;;;;;;;;;;5045693;28;20191;-83
2021/05/18 13:16:50;;;;;;;11.80;10.60;;;;;;;;;;5053427;28;20574;-84
2021/05/18 13:19:18;;;;;;;11.47;9.80;;;;;;;;;;5048313;28;20634;-84
2021/05/18 13:21:54;;;;;;;11.30;10.10;;;;;;;;;;5053172;28;20563;-84
2021/05/18 13:26:48;;;;;;;11.53;10.20;;;;;;;;;;5053004;28;20183;-85
2021/05/18 13:29:20;;;;;;;11.17;10.00;;;;;;;;;;5052399;28;20233;-84
2021/05/18 13:31:46;;;;;;;10.70;9.53;;;;;;;;;;5053033;28;20263;-84
2021/05/18 13:34:12;;;;;;;10.13;9.13;;;;;;;;;;5052133;28;20222;-85
2021/05/18 13:36:37;;;;;;;12.17;9.83;;;;;;;;;;5055902;28;20173;-84
2021/05/18 13:39:07;;;;;;;10.80;9.70;;;;;;;;;;5056523;28;20256;-84
2021/05/18 13:41:34;;;;;;;10.63;9.53;;;;;;;;;;5056525;28;20509;-84
2021/05/18 13:43:59;;;;;;;10.03;9.00;;;;;;;;;;5057069;28;20615;-84
2021/05/18 13:46:25;;;;;;;9.47;8.57;;;;;;;;;;5056971;28;20168;-84
2021/05/18 13:48:50;;;;;;;10.47;9.33;;;;;;;;;;5053861;28;20233;-85
2021/05/18 13:51:16;;;;;;;9.17;8.37;;;;;;;;;;5055378;28;20186;-85
2021/05/18 13:53:42;;;;;;;8.70;7.83;;;;;;;;;;5056913;28;20175;-85
2021/05/18 13:56:08;;;;;;;9.67;7.50;;;;;;;;;;5056593;28;20215;-85
2021/05/18 13:58:33;;;;;;;7.83;7.00;;;;;;;;;;5056861;28;20179;-86
2021/05/18 14:00:59;;;;;;;9.57;6.90;;;;;;;;;;5056030;28;20180;-85
2021/05/18 14:03:24;;;;;;;6.70;6.10;;;;;;;;;;5056440;28;20191;-85
2021/05/18 14:05:49;;;;;;;9.63;6.83;;;;;;;;;;5056455;28;20170;-84
2021/05/18 14:10:40;;;;;;;6.90;6.30;;;;;;;;;;5056065;28;20230;-84
2021/05/18 14:13:06;;;;;;;6.50;5.90;;;;;;;;;;5055891;28;20299;-84
2021/05/18 14:15:31;;;;;;;6.30;5.70;;;;;;;;;;5053582;28;20241;-83
2021/05/18 14:17:56;;;;;;;6.13;5.40;;;;;;;;;;5054218;28;20225;-85
2021/05/18 14:20:22;;;;;;;6.30;4.70;;;;;;;;;;5054646;28;20168;-83
2021/05/18 14:22:47;;;;;;;5.57;4.70;;;;;;;;;;5052664;28;20928;-83
2021/05/18 14:25:13;;;;;;;5.20;4.70;;;;;;;;;;5048006;28;20293;-84
2021/05/18 14:27:39;;;;;;;5.80;4.30;;;;;;;;;;5052225;28;20180;-84
2021/05/18 14:30:06;;;;;;;4.53;4.13;;;;;;;;;;5054519;28;20992;-84
2021/05/18 14:32:32;;;;;;;4.40;4.00;;;;;;;;;;5054582;28;20560;-85
2021/05/18 14:34:57;;;;;;;5.23;4.50;;;;;;;;;;5051463;28;20172;-83
2021/05/18 14:37:23;;;;;;;4.30;3.90;;;;;;;;;;5054272;28;20176;-84
2021/05/18 14:45:10;;;;;;;4.17;3.87;;;;;;;;;;5053515;28;20191;-85
2021/05/18 14:47:53;;;;;;;4.83;4.43;;;;;;;;;;5047299;28;20228;-85
2021/05/18 14:55:47;;;;;;;4.00;3.70;;;;;;;;;;5049380;28;20553;-85
2021/05/18 14:58:15;;;;;;;4.20;3.90;;;;;;;;;;5044409;28;20172;-84
2021/05/18 15:00:40;;;;;;;5.43;4.00;;;;;;;;;;5045733;28;20167;-84
2021/05/18 15:03:05;;;;;;;4.40;4.00;;;;;;;;;;5044178;28;20172;-86
2021/05/18 15:05:34;;;;;;;7.23;4.40;;;;;;;;;;5044581;28;20164;-85
2021/05/18 15:07:59;;;;;;;5.30;4.00;;;;;;;;;;5045551;28;20164;-84
2021/05/18 15:10:25;;;;;;;4.60;4.20;;;;;;;;;;5043763;28;20175;-84
2021/05/18 15:12:50;;;;;;;4.33;4.00;;;;;;;;;;5044412;28;20195;-84
2021/05/18 15:15:15;;;;;;;4.43;4.03;;;;;;;;;;5045634;28;20644;-83
2021/05/18 15:17:41;;;;;;;4.40;4.00;;;;;;;;;;5053745;28;20168;-84
2021/05/18 15:20:07;;;;;;;4.33;3.93;;;;;;;;;;5055030;28;20566;-84
2021/05/18 15:22:32;;;;;;;4.90;3.87;;;;;;;;;;5054746;28;20591;-84
2021/05/18 15:24:58;;;;;;;4.13;3.83;;;;;;;;;;5053305;28;20176;-84
2021/05/18 15:27:26;;;;;;;4.50;4.10;;;;;;;;;;5040155;28;20238;-84
2021/05/18 15:29:51;;;;;;;5.40;4.90;;;;;;;;;;5043853;28;20171;-84
2021/05/18 15:32:17;;;;;;;4.60;4.20;;;;;;;;;;5054526;28;20710;-84
2021/05/18 15:34:42;;;;;;;5.53;3.90;;;;;;;;;;5054754;28;20218;-85
2021/05/18 15:37:08;;;;;;;4.43;4.03;;;;;;;;;;5051662;28;20267;-85
2021/05/18 15:39:35;;;;;;;5.13;4.70;;;;;;;;;;5054007;28;20187;-85
2021/05/18 15:42:00;;;;;;;5.97;4.10;;;;;;;;;;5053948;28;20191;-85
2021/05/18 15:44:27;;;;;;;4.30;3.90;;;;;;;;;;5054479;28;20176;-85
2021/05/18 15:46:52;;;;;;;4.40;4.00;;;;;;;;;;5052269;28;20168;-83
2021/05/18 15:49:18;;;;;;;6.07;4.60;;;;;;;;;;5066783;28;20191;-83
2021/05/18 15:51:43;;;;;;;4.60;4.20;;;;;;;;;;5050307;28;20206;-83
2021/05/18 15:54:09;;;;;;;5.07;4.57;;;;;;;;;;5053870;28;20183;-83
2021/05/18 15:56:34;;;;;;;4.57;4.10;;;;;;;;;;5052292;28;20535;-83
2021/05/18 15:59:00;;;;;;;4.80;4.30;;;;;;;;;;5051827;28;20245;-83
2021/05/18 16:01:25;;;;;;;4.73;4.33;;;;;;;;;;5053916;28;20606;-83
2021/05/18 16:03:51;;;;;;;6.67;6.07;;;;;;;;;;5051729;28;20180;-83
2021/05/18 16:06:16;;;;;;;7.53;5.47;;;;;;;;;;5044607;28;20218;-82
2021/05/18 16:11:09;;;;;;;8.70;7.87;;;;;;;;;;5053798;28;20620;-83
2021/05/18 16:13:37;;;;;;;6.03;5.53;;;;;;;;;;5053195;28;20182;-83
2021/05/18 16:16:05;;;;;;;7.27;6.60;;;;;;;;;;5053749;28;20168;-83
2021/05/18 16:18:31;;;;;;;5.00;4.60;;;;;;;;;;5045654;28;20176;-82
2021/05/18 16:20:56;;;;;;;7.13;6.53;;;;;;;;;;5038822;28;20261;-82
2021/05/18 16:23:22;;;;;;;6.87;5.50;;;;;;;;;;5036392;28;20201;-82
2021/05/18 16:25:47;;;;;;;5.43;4.93;;;;;;;;;;5041032;28;20636;-82
2021/05/18 16:28:13;;;;;;;5.43;4.93;;;;;;;;;;5051328;28;20176;-83
2021/05/18 16:30:38;;;;;;;5.50;5.00;;;;;;;;;;5053648;28;20228;-83
2021/05/18 16:33:03;;;;;;;5.40;4.80;;;;;;;;;;5053619;28;20210;-83
2021/05/18 16:35:29;;;;;;;5.80;4.93;;;;;;;;;;5053448;28;20508;-83
2021/05/18 16:37:55;;;;;;;7.07;4.97;;;;;;;;;;5053645;28;20306;-83
2021/05/18 16:40:20;;;;;;;5.13;4.63;;;;;;;;;;5053621;28;20202;-82
2021/05/18 16:42:46;;;;;;;5.63;4.83;;;;;;;;;;5045633;28;20310;-82
2021/05/18 16:45:12;;;;;;;6.23;5.57;;;;;;;;;;5039940;28;20177;-82
2021/05/18 16:47:38;;;;;;;5.77;5.17;;;;;;;;;;5043788;28;20172;-82
2021/05/18 16:50:04;;;;;;;5.23;4.73;;;;;;;;;;5042176;28;20164;-82
2021/05/18 16:52:29;;;;;;;5.13;4.70;;;;;;;;;;5042334;28;20603;-83
2021/05/18 16:54:54;;;;;;;5.03;4.53;;;;;;;;;;5044073;28;20168;-83
2021/05/18 16:57:20;;;;;;;4.37;4.00;;;;;;;;;;5042117;28;20226;-83
2021/05/18 16:59:45;;;;;;;4.67;4.27;;;;;;;;;;5043896;28;20216;-83
2021/05/18 17:02:10;;;;;;;5.43;4.83;;;;;;;;;;5042966;28;20172;-84
2021/05/18 17:04:36;;;;;;;5.17;4.53;;;;;;;;;;5041986;28;20222;-83
2021/05/18 17:07:03;;;;;;;4.90;4.40;;;;;;;;;;5043785;28;20168;-83
2021/05/18 17:09:29;;;;;;;4.73;4.40;;;;;;;;;;5042424;28;20510;-83
2021/05/18 17:11:54;;;;;;;6.20;5.07;;;;;;;;;;5043664;28;20192;-83
2021/05/18 17:14:22;;;;;;;5.70;4.83;;;;;;;;;;5047092;28;20164;-84
2021/05/18 17:16:47;;;;;;;5.37;4.87;;;;;;;;;;5047310;28;20176;-83
2021/05/18 17:19:13;;;;;;;5.20;4.70;;;;;;;;;;5046125;28;20703;-83
2021/05/18 17:21:38;;;;;;;6.13;5.03;;;;;;;;;;5046240;28;20172;-83
2021/05/18 17:24:04;;;;;;;5.53;5.00;;;;;;;;;;5047832;28;20362;-83
2021/05/18 17:26:30;;;;;;;5.20;4.80;;;;;;;;;;5047662;28;20172;-83
2021/05/18 17:28:55;;;;;;;5.50;5.00;;;;;;;;;;5046750;28;20165;-83
2021/05/18 17:31:20;;;;;;;5.73;5.23;;;;;;;;;;5045577;28;20219;-83
2021/05/18 17:33:46;;;;;;;5.37;4.87;;;;;;;;;;5047507;28;20176;-83
2021/05/18 17:36:11;;;;;;;5.03;4.63;;;;;;;;;;5046316;28;20613;-84
2021/05/18 17:38:36;;;;;;;5.00;4.60;;;;;;;;;;5046164;28;20179;-84
2021/05/18 17:41:03;;;;;;;5.17;4.73;;;;;;;;;;5053525;28;20168;-83
2021/05/18 17:43:29;;;;;;;5.57;4.97;;;;;;;;;;5056792;28;20176;-83
2021/05/18 17:45:54;;;;;;;5.97;5.00;;;;;;;;;;5056589;28;20639;-83
2021/05/18 17:48:20;;;;;;;5.53;4.80;;;;;;;;;;5056545;28;20164;-83
2021/05/18 17:50:45;;;;;;;6.90;5.10;;;;;;;;;;5055488;28;20179;-84
2021/05/18 17:53:11;;;;;;;5.30;4.80;;;;;;;;;;5053812;28;20218;-84
2021/05/18 17:55:36;;;;;;;5.57;5.07;;;;;;;;;;5052515;28;20186;-84
2021/05/18 17:58:01;;;;;;;5.53;5.03;;;;;;;;;;5046256;28;20698;-84
2021/05/18 18:00:27;;;;;;;5.03;4.53;;;;;;;;;;5046518;28;20504;-84
2021/05/18 18:02:52;;;;;;;4.80;4.40;;;;;;;;;;5047239;28;20175;-84
2021/05/18 18:05:18;;;;;;;5.47;4.97;;;;;;;;;;5044001;28;20202;-84
2021/05/18 18:07:43;;;;;;;6.03;5.33;;;;;;;;;;5046955;28;20512;-84
2021/05/18 18:10:09;;;;;;;5.37;4.80;;;;;;;;;;5045076;28;20176;-84
2021/05/18 18:12:35;;;;;;;5.30;4.73;;;;;;;;;;5046535;28;20245;-83
2021/05/18 18:15:00;;;;;;;5.03;4.57;;;;;;;;;;5044715;28;20172;-84
2021/05/18 18:17:26;;;;;;;5.23;4.60;;;;;;;;;;5044404;28;20179;-84
2021/05/18 18:19:55;;;;;;;6.60;4.70;;;;;;;;;;5044838;28;20234;-83
2021/05/18 18:22:21;;;;;;;5.10;4.50;;;;;;;;;;5043275;28;20180;-83
2021/05/18 18:24:47;;;;;;;4.90;4.50;;;;;;;;;;5044324;28;20235;-83
2021/05/18 18:27:15;;;;;;;4.77;4.37;;;;;;;;;;5046030;28;20262;-83
2021/05/18 18:29:41;;;;;;;5.23;4.30;;;;;;;;;;5044874;28;20173;-83
2021/05/18 18:32:07;;;;;;;4.40;4.00;;;;;;;;;;5044255;28;20676;-84
2021/05/18 18:34:32;;;;;;;4.40;4.00;;;;;;;;;;5050049;28;20180;-83
2021/05/18 18:37:00;;;;;;;3.93;3.63;;;;;;;;;;5056149;28;20183;-83
2021/05/18 18:39:25;;;;;;;5.03;4.07;;;;;;;;;;5047951;28;20245;-83
2021/05/18 18:41:51;;;;;;;4.20;3.80;;;;;;;;;;5052781;28;20180;-83
2021/05/18 18:44:16;;;;;;;4.17;3.80;;;;;;;;;;5054091;28;20266;-83
2021/05/18 18:46:41;;;;;;;4.67;4.27;;;;;;;;;;5055214;28;20179;-83
2021/05/18 18:49:12;;;;;;;4.50;4.10;;;;;;;;;;5055278;28;20182;-84
2021/05/18 18:51:38;;;;;;;5.47;4.30;;;;;;;;;;5055390;28;20235;-84
2021/05/18 18:54:04;;;;;;;4.70;4.20;;;;;;;;;;5055651;28;20203;-84
2021/05/18 18:56:30;;;;;;;4.70;4.30;;;;;;;;;;5053946;28;20175;-84
2021/05/18 18:58:56;;;;;;;4.57;4.17;;;;;;;;;;5053661;28;20178;-84
2021/05/18 19:01:21;;;;;;;4.70;4.30;;;;;;;;;;5053118;28;20175;-83
2021/05/18 19:03:57;;;;;;;4.97;4.47;;;;;;;;;;5055123;28;20176;-83
2021/05/18 19:06:38;;;;;;;5.10;4.60;;;;;;;;;;5055110;28;20628;-83
2021/05/18 19:09:53;;;;;;;5.10;4.70;;;;;;;;;;5055638;28;20164;-84
2021/05/18 19:14:21;;;;;;;5.17;4.67;;;;;;;;;;5055018;28;20183;-83
2021/05/18 19:16:49;;;;;;;5.70;5.10;;;;;;;;;;5055392;28;20612;-83
2021/05/18 19:19:17;;;;;;;5.77;4.60;;;;;;;;;;5055654;28;20187;-83
2021/05/18 19:21:47;;;;;;;6.03;4.90;;;;;;;;;;5072057;28;20187;-83
2021/05/18 19:24:13;;;;;;;6.57;4.93;;;;;;;;;;5054848;28;20279;-83
2021/05/18 19:26:39;;;;;;;5.93;5.27;;;;;;;;;;5054829;28;20262;-83
2021/05/18 19:29:04;;;;;;;8.17;5.60;;;;;;;;;;5054619;28;20172;-82
2021/05/18 19:31:30;;;;;;;5.70;5.20;;;;;;;;;;5054757;28;20232;-82
2021/05/18 19:33:57;;;;;;;5.90;5.30;;;;;;;;;;5054616;28;20619;-82
2021/05/18 19:36:31;;;;;;;6.87;5.63;;;;;;;;;;5054335;28;20554;-82
2021/05/18 19:49:31;;;;;;;8.73;6.60;;;;;;;;;;5054253;28;20270;-83